Time,TemperatureF,DewpointF,PressureIn,WindDirection,WindDirectionDegrees,WindSpeedMPH,WindSpeedGustMPH,Humidity,HourlyPrecipIn,Conditions,Clouds,dailyrainin,SoftwareType,DateUTC
2013-01-31 00:02:00,24.0,19.6,30.06,WSW,238,4.0,5.0,83,0.00,,,0.00,Wunderground v.1.15,2013-01-31 06:02:00,
2013-01-31 00:07:00,24.0,19.6,30.06,West,259,3.0,5.0,83,0.00,,,0.00,Wunderground v.1.15,2013-01-31 06:07:00,
2013-01-31 00:13:00,23.9,19.5,30.06,WSW,238,3.0,7.0,83,0.00,,,0.00,Wunderground v.1.15,2013-01-31 06:13:00,
2013-01-31 00:18:00,23.9,19.5,30.06,WSW,257,4.0,7.0,83,0.00,,,0.00,Wunderground v.1.15,2013-01-31 06:18:00,
2013-01-31 00:24:00,23.8,19.4,30.06,WSW,244,3.0,4.0,83,0.00,,,0.00,Wunderground v.1.15,2013-01-31 06:24:00,
2013-01-31 00:30:00,23.7,19.3,30.06,WSW,246,0.0,0.0,83,0.00,,,0.00,Wunderground v.1.15,2013-01-31 06:30:00,
2013-01-31 00:35:00,23.6,19.5,30.06,WSW,240,4.0,4.0,84,0.00,,,0.00,Wunderground v.1.15,2013-01-31 06:35:00,
2013-01-31 00:41:00,23.7,19.6,30.06,SW,232,3.0,4.0,84,0.00,,,0.00,Wunderground v.1.15,2013-01-31 06:41:00,
2013-01-31 00:46:00,23.7,19.6,30.06,SW,234,3.0,5.0,84,0.00,,,0.00,Wunderground v.1.15,2013-01-31 06:46:00,
2013-01-31 00:51:00,23.6,19.5,30.05,SW,234,2.0,3.0,84,0.00,,,0.00,Wunderground v.1.15,2013-01-31 06:51:00,
2013-01-31 00:57:00,23.5,19.4,30.05,SW,236,1.0,3.0,84,0.00,,,0.00,Wunderground v.1.15,2013-01-31 06:57:00,
2013-01-31 01:02:00,23.4,19.3,30.05,SSW,207,2.0,6.0,84,0.00,,,0.00,Wunderground v.1.15,2013-01-31 07:02:00,
2013-01-31 01:07:00,23.5,19.4,30.05,SSW,212,2.0,6.0,84,0.00,,,0.00,Wunderground v.1.15,2013-01-31 07:07:00,
2013-01-31 01:13:00,23.7,19.6,30.05,SW,214,3.0,4.0,84,0.00,,,0.00,Wunderground v.1.15,2013-01-31 07:13:00,
2013-01-31 01:19:00,23.8,19.4,30.05,WSW,238,4.0,7.0,83,0.00,,,0.00,Wunderground v.1.15,2013-01-31 07:19:00,
2013-01-31 01:25:00,24.0,19.3,30.05,SW,236,5.0,6.0,82,0.00,,,0.00,Wunderground v.1.15,2013-01-31 07:25:00,
2013-01-31 01:30:00,23.9,19.2,30.04,WSW,242,4.0,4.0,82,0.00,,,0.00,Wunderground v.1.15,2013-01-31 07:30:00,
2013-01-31 01:35:00,23.8,19.1,30.04,SW,232,3.0,5.0,82,0.00,,,0.00,Wunderground v.1.15,2013-01-31 07:35:00,
2013-01-31 01:41:00,23.8,19.1,30.05,SW,232,4.0,6.0,82,0.00,,,0.00,Wunderground v.1.15,2013-01-31 07:41:00,
2013-01-31 01:46:00,24.0,19.3,30.05,SW,231,5.0,6.0,82,0.00,,,0.00,Wunderground v.1.15,2013-01-31 07:46:00,
2013-01-31 01:52:00,24.2,19.2,30.05,WSW,246,5.0,6.0,81,0.00,,,0.00,Wunderground v.1.15,2013-01-31 07:52:00,
2013-01-31 01:57:00,24.3,19.3,30.05,SW,222,6.0,8.0,81,0.00,,,0.00,Wunderground v.1.15,2013-01-31 07:57:00,
2013-01-31 02:02:00,24.4,19.1,30.05,WSW,240,6.0,9.0,80,0.00,,,0.00,Wunderground v.1.15,2013-01-31 08:02:00,
2013-01-31 02:08:00,24.6,19.3,30.05,WSW,249,6.0,9.0,80,0.00,,,0.00,Wunderground v.1.15,2013-01-31 08:08:00,
2013-01-31 02:13:00,24.6,19.3,30.06,SSW,213,6.0,7.0,80,0.00,,,0.00,Wunderground v.1.15,2013-01-31 08:13:00,
2013-01-31 02:18:00,24.6,19.6,30.06,SW,223,7.0,7.0,81,0.00,,,0.00,Wunderground v.1.15,2013-01-31 08:18:00,
2013-01-31 02:24:00,24.5,19.5,30.06,SW,223,7.0,10.0,81,0.00,,,0.00,Wunderground v.1.15,2013-01-31 08:24:00,
2013-01-31 02:29:00,24.5,19.5,30.05,SW,228,6.0,10.0,81,0.00,,,0.00,Wunderground v.1.15,2013-01-31 08:29:00,
2013-01-31 02:34:00,24.6,19.6,30.05,SW,232,6.0,6.0,81,0.00,,,0.00,Wunderground v.1.15,2013-01-31 08:34:00,
2013-01-31 02:40:00,24.4,19.4,30.05,SW,217,4.0,5.0,81,0.00,,,0.00,Wunderground v.1.15,2013-01-31 08:40:00,
2013-01-31 02:45:00,24.4,19.4,30.05,SW,216,4.0,5.0,81,0.00,,,0.00,Wunderground v.1.15,2013-01-31 08:45:00,
2013-01-31 02:50:00,24.5,19.5,30.04,SSW,211,5.0,5.0,81,0.00,,,0.00,Wunderground v.1.15,2013-01-31 08:50:00,
2013-01-31 02:56:00,24.5,19.5,30.04,SW,235,5.0,5.0,81,0.00,,,0.00,Wunderground v.1.15,2013-01-31 08:56:00,
2013-01-31 03:01:00,24.5,19.5,30.04,SSW,213,4.0,4.0,81,0.00,,,0.00,Wunderground v.1.15,2013-01-31 09:01:00,
2013-01-31 03:06:00,24.5,19.5,30.04,SSW,202,4.0,5.0,81,0.00,,,0.00,Wunderground v.1.15,2013-01-31 09:06:00,
2013-01-31 03:12:00,24.4,19.4,30.04,SSW,193,4.0,5.0,81,0.00,,,0.00,Wunderground v.1.15,2013-01-31 09:12:00,
2013-01-31 03:17:00,24.2,19.5,30.04,SSW,193,4.0,5.0,82,0.00,,,0.00,Wunderground v.1.15,2013-01-31 09:17:00,
2013-01-31 03:23:00,24.1,19.7,30.03,South,179,4.0,4.0,83,0.00,,,0.00,Wunderground v.1.15,2013-01-31 09:23:00,
2013-01-31 03:28:00,23.9,19.5,30.03,South,172,4.0,6.0,83,0.00,,,0.00,Wunderground v.1.15,2013-01-31 09:28:00,
2013-01-31 03:33:00,23.9,19.8,30.03,South,173,4.0,7.0,84,0.00,,,0.00,Wunderground v.1.15,2013-01-31 09:33:00,
2013-01-31 03:39:00,24.0,19.9,30.03,South,180,5.0,9.0,84,0.00,,,0.00,Wunderground v.1.15,2013-01-31 09:39:00,
2013-01-31 03:44:00,23.8,19.7,30.03,South,182,6.0,7.0,84,0.00,,,0.00,Wunderground v.1.15,2013-01-31 09:44:00,
2013-01-31 03:50:00,23.5,19.7,30.03,South,184,6.0,7.0,85,0.00,,,0.00,Wunderground v.1.15,2013-01-31 09:50:00,
2013-01-31 03:55:00,23.2,19.4,30.04,South,188,5.0,7.0,85,0.00,,,0.00,Wunderground v.1.15,2013-01-31 09:55:00,
2013-01-31 04:01:00,22.8,19.2,30.04,South,188,6.0,6.0,86,0.00,,,0.00,Wunderground v.1.15,2013-01-31 10:01:00,
2013-01-31 04:06:00,22.8,19.2,30.04,SSW,209,6.0,7.0,86,0.00,,,0.00,Wunderground v.1.15,2013-01-31 10:06:00,
2013-01-31 04:11:00,23.1,19.8,30.04,SSW,198,5.0,7.0,87,0.00,,,0.00,Wunderground v.1.15,2013-01-31 10:11:00,
2013-01-31 04:16:00,23.5,19.9,30.03,SSW,196,5.0,9.0,86,0.00,,,0.00,Wunderground v.1.15,2013-01-31 10:16:00,
2013-01-31 04:22:00,23.4,19.8,30.03,South,182,7.0,8.0,86,0.00,,,0.00,Wunderground v.1.15,2013-01-31 10:22:00,
2013-01-31 04:27:00,23.3,19.7,30.03,SSW,196,7.0,8.0,86,0.00,,,0.00,Wunderground v.1.15,2013-01-31 10:27:00,
2013-01-31 04:32:00,23.4,19.8,30.03,South,189,7.0,9.0,86,0.00,,,0.00,Wunderground v.1.15,2013-01-31 10:32:00,
2013-01-31 04:38:00,23.6,20.3,30.03,South,184,8.0,9.0,87,0.00,,,0.00,Wunderground v.1.15,2013-01-31 10:38:00,
2013-01-31 04:44:00,23.8,20.5,30.03,South,189,8.0,10.0,87,0.00,,,0.00,Wunderground v.1.15,2013-01-31 10:44:00,
2013-01-31 04:49:00,24.1,20.8,30.03,South,190,7.0,10.0,87,0.00,,,0.00,Wunderground v.1.15,2013-01-31 10:49:00,
2013-01-31 04:54:00,24.3,20.7,30.03,SSW,195,6.0,8.0,86,0.00,,,0.00,Wunderground v.1.15,2013-01-31 10:54:00,
2013-01-31 05:00:00,24.6,20.7,30.04,SSW,205,6.0,7.0,85,0.00,,,0.00,Wunderground v.1.15,2013-01-31 11:00:00,
2013-01-31 05:05:00,25.0,21.1,30.04,SSW,197,7.0,9.0,85,0.00,,,0.00,Wunderground v.1.15,2013-01-31 11:05:00,
2013-01-31 05:11:00,25.0,21.1,30.04,South,190,7.0,8.0,85,0.00,,,0.00,Wunderground v.1.15,2013-01-31 11:11:00,
2013-01-31 05:16:00,24.9,21.0,30.04,South,180,7.0,8.0,85,0.00,,,0.00,Wunderground v.1.15,2013-01-31 11:16:00,
2013-01-31 05:21:00,25.0,21.1,30.04,SSW,194,7.0,7.0,85,0.00,,,0.00,Wunderground v.1.15,2013-01-31 11:21:00,
2013-01-31 05:26:00,25.0,21.1,30.04,South,188,7.0,7.0,85,0.00,,,0.00,Wunderground v.1.15,2013-01-31 11:26:00,
2013-01-31 05:32:00,24.9,21.0,30.04,SSW,194,7.0,7.0,85,0.00,,,0.00,Wunderground v.1.15,2013-01-31 11:32:00,
2013-01-31 05:37:00,24.9,21.3,30.04,SSW,193,7.0,8.0,86,0.00,,,0.00,Wunderground v.1.15,2013-01-31 11:37:00,
2013-01-31 05:43:00,24.9,21.0,30.05,South,182,7.0,9.0,85,0.00,,,0.00,Wunderground v.1.15,2013-01-31 11:43:00,
2013-01-31 05:48:00,25.1,21.2,30.04,SW,215,7.0,11.0,85,0.00,,,0.00,Wunderground v.1.15,2013-01-31 11:48:00,
2013-01-31 05:53:00,25.1,21.2,30.04,South,186,7.0,7.0,85,0.00,,,0.00,Wunderground v.1.15,2013-01-31 11:53:00,
2013-01-31 05:58:00,25.4,21.5,30.04,SSW,198,6.0,7.0,85,0.00,,,0.00,Wunderground v.1.15,2013-01-31 11:58:00,
2013-01-31 06:04:00,25.3,21.1,30.04,South,180,7.0,10.0,84,0.00,,,0.00,Wunderground v.1.15,2013-01-31 12:04:00,
2013-01-31 06:09:00,25.2,21.0,30.03,SSW,196,8.0,10.0,84,0.00,,,0.00,Wunderground v.1.15,2013-01-31 12:09:00,
2013-01-31 06:15:00,25.5,21.3,30.03,South,171,9.0,13.0,84,0.00,,,0.00,Wunderground v.1.15,2013-01-31 12:15:00,
2013-01-31 06:20:00,25.6,21.4,30.03,SSW,192,8.0,10.0,84,0.00,,,0.00,Wunderground v.1.15,2013-01-31 12:20:00,
2013-01-31 06:25:00,25.8,21.3,30.03,SSW,200,8.0,10.0,83,0.00,,,0.00,Wunderground v.1.15,2013-01-31 12:25:00,
2013-01-31 06:31:00,26.0,21.5,30.04,South,185,8.0,8.0,83,0.00,,,0.00,Wunderground v.1.15,2013-01-31 12:31:00,
2013-01-31 06:36:00,26.3,21.8,30.04,South,190,8.0,10.0,83,0.00,,,0.00,Wunderground v.1.15,2013-01-31 12:36:00,
2013-01-31 06:41:00,26.4,21.7,30.04,South,185,8.0,9.0,82,0.00,,,0.00,Wunderground v.1.15,2013-01-31 12:41:00,
2013-01-31 06:47:00,26.7,21.7,30.05,South,190,8.0,10.0,81,0.00,,,0.00,Wunderground v.1.15,2013-01-31 12:47:00,
2013-01-31 06:52:00,26.9,21.8,30.05,SSW,194,8.0,8.0,81,0.00,,,0.00,Wunderground v.1.15,2013-01-31 12:52:00,
2013-01-31 06:57:00,26.9,21.8,30.05,SSW,194,8.0,10.0,81,0.00,,,0.00,Wunderground v.1.15,2013-01-31 12:57:00,
2013-01-31 07:03:00,26.9,21.8,30.04,South,188,8.0,12.0,81,0.00,,,0.00,Wunderground v.1.15,2013-01-31 13:03:00,
2013-01-31 07:08:00,27.0,21.9,30.05,SSW,193,8.0,12.0,81,0.00,,,0.00,Wunderground v.1.15,2013-01-31 13:08:00,
2013-01-31 07:13:00,27.1,22.0,30.05,South,188,8.0,11.0,81,0.00,,,0.00,Wunderground v.1.15,2013-01-31 13:13:00,
2013-01-31 07:19:00,27.4,22.0,30.04,SSW,211,8.0,11.0,80,0.00,,,0.00,Wunderground v.1.15,2013-01-31 13:19:00,
2013-01-31 07:25:00,27.5,21.8,30.04,SSW,194,8.0,12.0,79,0.00,,,0.00,Wunderground v.1.15,2013-01-31 13:25:00,
2013-01-31 07:30:00,27.5,21.8,30.04,SSW,207,8.0,8.0,79,0.00,,,0.00,Wunderground v.1.15,2013-01-31 13:30:00,
2013-01-31 07:36:00,27.7,21.7,30.05,South,191,8.0,14.0,78,0.00,,,0.00,Wunderground v.1.15,2013-01-31 13:36:00,
2013-01-31 07:41:00,27.7,21.7,30.05,South,191,12.0,12.0,78,0.00,,,0.00,Wunderground v.1.15,2013-01-31 13:41:00,
2013-01-31 07:47:00,28.3,21.7,30.05,South,172,6.0,12.0,76,0.00,,,0.00,Wunderground v.1.15,2013-01-31 13:47:00,
2013-01-31 07:52:00,28.7,22.1,30.06,South,191,7.0,8.0,76,0.00,,,0.00,Wunderground v.1.15,2013-01-31 13:52:00,
2013-01-31 07:58:00,29.2,21.9,30.06,South,190,7.0,8.0,74,0.00,,,0.00,Wunderground v.1.15,2013-01-31 13:58:00,
2013-01-31 08:03:00,29.3,22.0,30.06,South,187,6.0,9.0,74,0.00,,,0.00,Wunderground v.1.15,2013-01-31 14:03:00,
2013-01-31 08:08:00,29.6,22.3,30.06,SSW,192,7.0,9.0,74,0.00,,,0.00,Wunderground v.1.15,2013-01-31 14:08:00,
2013-01-31 08:14:00,30.0,22.4,30.06,SSW,202,8.0,9.0,73,0.00,,,0.00,Wunderground v.1.15,2013-01-31 14:14:00,
2013-01-31 08:20:00,30.3,22.4,30.07,South,180,7.0,7.0,72,0.00,,,0.00,Wunderground v.1.15,2013-01-31 14:20:00,
2013-01-31 08:25:00,30.4,22.4,30.07,South,179,7.0,10.0,72,0.00,,,0.00,Wunderground v.1.15,2013-01-31 14:25:00,
2013-01-31 08:30:00,30.8,22.8,30.07,SSW,209,7.0,7.0,72,0.00,,,0.00,Wunderground v.1.15,2013-01-31 14:30:00,
2013-01-31 08:35:00,31.2,22.9,30.08,SW,228,7.0,11.0,71,0.00,,,0.00,Wunderground v.1.15,2013-01-31 14:35:00,
2013-01-31 08:40:00,31.7,23.0,30.08,South,191,7.0,7.0,70,0.00,,,0.00,Wunderground v.1.15,2013-01-31 14:40:00,
2013-01-31 08:46:00,32.0,23.0,30.08,SSW,196,7.0,8.0,69,0.00,,,0.00,Wunderground v.1.15,2013-01-31 14:46:00,
2013-01-31 08:51:00,32.6,23.2,30.08,South,186,7.0,10.0,68,0.00,,,0.00,Wunderground v.1.15,2013-01-31 14:51:00,
2013-01-31 08:57:00,32.9,23.5,30.08,South,185,8.0,10.0,68,0.00,,,0.00,Wunderground v.1.15,2013-01-31 14:57:00,
2013-01-31 09:02:00,33.2,23.4,30.08,SSW,198,7.0,9.0,67,0.00,,,0.00,Wunderground v.1.15,2013-01-31 15:02:00,
2013-01-31 09:08:00,33.7,23.5,30.08,SSW,197,7.0,9.0,66,0.00,,,0.00,Wunderground v.1.15,2013-01-31 15:08:00,
2013-01-31 09:13:00,34.2,24.0,30.09,South,175,6.0,7.0,66,0.00,,,0.00,Wunderground v.1.15,2013-01-31 15:13:00,
2013-01-31 09:18:00,35.1,24.1,30.10,SSW,198,5.0,7.0,64,0.00,,,0.00,Wunderground v.1.15,2013-01-31 15:18:00,
2013-01-31 09:23:00,35.5,24.1,30.10,South,173,4.0,5.0,63,0.00,,,0.00,Wunderground v.1.15,2013-01-31 15:23:00,
2013-01-31 09:29:00,35.9,24.5,30.10,South,185,4.0,5.0,63,0.00,,,0.00,Wunderground v.1.15,2013-01-31 15:29:00,
2013-01-31 09:35:00,36.8,24.6,30.10,SW,217,3.0,7.0,61,0.00,,,0.00,Wunderground v.1.15,2013-01-31 15:35:00,
2013-01-31 09:40:00,37.5,24.5,30.10,SW,236,2.0,4.0,59,0.00,,,0.00,Wunderground v.1.15,2013-01-31 15:40:00,
2013-01-31 09:45:00,37.5,24.9,30.11,SW,220,4.0,7.0,60,0.00,,,0.00,Wunderground v.1.15,2013-01-31 15:45:00,
2013-01-31 09:51:00,38.0,24.5,30.11,South,191,4.0,5.0,58,0.00,,,0.00,Wunderground v.1.15,2013-01-31 15:51:00,
2013-01-31 09:56:00,38.9,25.4,30.11,SW,236,3.0,5.0,58,0.00,,,0.00,Wunderground v.1.15,2013-01-31 15:56:00,
2013-01-31 10:02:00,39.1,25.1,30.11,WSW,243,4.0,6.0,57,0.00,,,0.00,Wunderground v.1.15,2013-01-31 16:02:00,
2013-01-31 10:07:00,39.7,25.7,30.12,WSW,251,5.0,8.0,57,0.00,,,0.00,Wunderground v.1.15,2013-01-31 16:07:00,
2013-01-31 10:13:00,41.8,28.1,30.12,West,275,4.0,5.0,58,0.00,,,0.00,Wunderground v.1.15,2013-01-31 16:13:00,
2013-01-31 10:18:00,42.1,27.1,30.12,SW,234,3.0,5.0,55,0.00,,,0.00,Wunderground v.1.15,2013-01-31 16:18:00,
2013-01-31 10:23:00,42.2,27.2,30.12,West,259,4.0,7.0,55,0.00,,,0.00,Wunderground v.1.15,2013-01-31 16:23:00,
2013-01-31 10:29:00,42.4,26.0,30.12,SW,236,4.0,9.0,52,0.00,,,0.00,Wunderground v.1.15,2013-01-31 16:29:00,
2013-01-31 10:35:00,42.7,26.3,30.13,West,263,5.0,7.0,52,0.00,,,0.00,Wunderground v.1.15,2013-01-31 16:35:00,
2013-01-31 10:40:00,43.4,26.0,30.12,SSW,209,5.0,7.0,50,0.00,,,0.00,Wunderground v.1.15,2013-01-31 16:40:00,
2013-01-31 10:45:00,43.8,26.3,30.13,WSW,246,5.0,7.0,50,0.00,,,0.00,Wunderground v.1.15,2013-01-31 16:45:00,
2013-01-31 10:51:00,44.1,25.6,30.13,NNW,339,5.0,5.0,48,0.00,,,0.00,Wunderground v.1.15,2013-01-31 16:51:00,
2013-01-31 10:56:00,44.6,26.6,30.13,NW,313,4.0,5.0,49,0.00,,,0.00,Wunderground v.1.15,2013-01-31 16:56:00,
2013-01-31 11:02:00,45.1,25.5,30.14,NW,314,4.0,7.0,46,0.00,,,0.00,Wunderground v.1.15,2013-01-31 17:02:00,
2013-01-31 11:07:00,43.6,24.7,30.14,SSW,211,4.0,8.0,47,0.00,,,0.00,Wunderground v.1.15,2013-01-31 17:07:00,
2013-01-31 11:13:00,44.6,27.6,30.14,WSW,238,4.0,6.0,51,0.00,,,0.00,Wunderground v.1.15,2013-01-31 17:13:00,
2013-01-31 11:18:00,46.1,28.0,30.13,SW,235,3.0,6.0,49,0.00,,,0.00,Wunderground v.1.15,2013-01-31 17:18:00,
2013-01-31 11:24:00,44.3,25.3,30.13,NW,308,3.0,9.0,47,0.00,,,0.00,Wunderground v.1.15,2013-01-31 17:24:00,
2013-01-31 11:29:00,44.6,26.6,30.13,SSW,201,5.0,5.0,49,0.00,,,0.00,Wunderground v.1.15,2013-01-31 17:29:00,
2013-01-31 11:35:00,44.4,26.4,30.13,SW,229,5.0,6.0,49,0.00,,,0.00,Wunderground v.1.15,2013-01-31 17:35:00,
2013-01-31 11:40:00,45.2,27.2,30.13,SW,216,5.0,5.0,49,0.00,,,0.00,Wunderground v.1.15,2013-01-31 17:40:00,
2013-01-31 11:45:00,45.0,26.5,30.13,SW,231,5.0,7.0,48,0.00,,,0.00,Wunderground v.1.15,2013-01-31 17:45:00,
2013-01-31 11:51:00,45.0,26.5,30.13,SW,234,6.0,8.0,48,0.00,,,0.00,Wunderground v.1.15,2013-01-31 17:51:00,
2013-01-31 11:56:00,45.5,27.4,30.12,WSW,258,6.0,8.0,49,0.00,,,0.00,Wunderground v.1.15,2013-01-31 17:56:00,
2013-01-31 12:01:00,46.8,27.6,30.13,West,279,5.0,6.0,47,0.00,,,0.00,Wunderground v.1.15,2013-01-31 18:01:00,
2013-01-31 12:07:00,47.3,28.6,30.13,West,263,4.0,6.0,48,0.00,,,0.00,Wunderground v.1.15,2013-01-31 18:07:00,
2013-01-31 12:12:00,46.5,27.3,30.13,SW,228,5.0,8.0,47,0.00,,,0.00,Wunderground v.1.15,2013-01-31 18:12:00,
2013-01-31 12:17:00,48.1,28.3,30.13,NNW,331,5.0,8.0,46,0.00,,,0.00,Wunderground v.1.15,2013-01-31 18:17:00,
2013-01-31 12:23:00,48.4,28.0,30.14,WNW,283,4.0,8.0,45,0.00,,,0.00,Wunderground v.1.15,2013-01-31 18:23:00,
2013-01-31 12:28:00,48.4,28.5,30.14,West,267,5.0,8.0,46,0.00,,,0.00,Wunderground v.1.15,2013-01-31 18:28:00,
2013-01-31 12:33:00,48.8,29.4,30.14,SW,222,5.0,10.0,47,0.00,,,0.00,Wunderground v.1.15,2013-01-31 18:33:00,
2013-01-31 12:39:00,47.8,27.5,30.14,NNE,23,6.0,10.0,45,0.00,,,0.00,Wunderground v.1.15,2013-01-31 18:39:00,
2013-01-31 12:45:00,47.2,28.0,30.14,WSW,244,6.0,12.0,47,0.00,,,0.00,Wunderground v.1.15,2013-01-31 18:45:00,
2013-01-31 12:50:00,48.9,28.5,30.14,SW,230,4.0,12.0,45,0.00,,,0.00,Wunderground v.1.15,2013-01-31 18:50:00,
2013-01-31 12:55:00,47.0,27.8,30.14,SW,224,5.0,12.0,47,0.00,,,0.00,Wunderground v.1.15,2013-01-31 18:55:00,
2013-01-31 13:01:00,49.4,29.5,30.14,West,274,5.0,6.0,46,0.00,,,0.00,Wunderground v.1.15,2013-01-31 19:01:00,
2013-01-31 13:06:00,47.6,28.9,30.14,WNW,297,5.0,12.0,48,0.00,,,0.00,Wunderground v.1.15,2013-01-31 19:06:00,
2013-01-31 13:11:00,47.5,30.3,30.14,North,355,4.0,5.0,51,0.00,,,0.00,Wunderground v.1.15,2013-01-31 19:11:00,
2013-01-31 13:17:00,46.5,28.8,30.14,WNW,290,4.0,7.0,50,0.00,,,0.00,Wunderground v.1.15,2013-01-31 19:17:00,
2013-01-31 13:22:00,45.5,27.9,30.14,NNE,19,5.0,6.0,50,0.00,,,0.00,Wunderground v.1.15,2013-01-31 19:22:00,
2013-01-31 13:28:00,45.4,28.3,30.15,NW,305,5.0,6.0,51,0.00,,,0.00,Wunderground v.1.15,2013-01-31 19:28:00,
2013-01-31 13:33:00,44.9,28.3,30.15,WNW,288,6.0,10.0,52,0.00,,,0.00,Wunderground v.1.15,2013-01-31 19:33:00,
2013-01-31 13:39:00,44.2,27.7,30.15,West,269,6.0,10.0,52,0.00,,,0.00,Wunderground v.1.15,2013-01-31 19:39:00,
2013-01-31 13:44:00,44.7,28.6,30.15,NW,325,5.0,6.0,53,0.00,,,0.00,Wunderground v.1.15,2013-01-31 19:44:00,
2013-01-31 13:49:00,45.4,28.8,30.15,North,349,3.0,5.0,52,0.00,,,0.00,Wunderground v.1.15,2013-01-31 19:49:00,
2013-01-31 13:55:00,44.9,27.8,30.15,ENE,67,3.0,6.0,51,0.00,,,0.00,Wunderground v.1.15,2013-01-31 19:55:00,
2013-01-31 14:00:00,44.9,28.8,30.15,NNW,342,4.0,4.0,53,0.00,,,0.00,Wunderground v.1.15,2013-01-31 20:00:00,
2013-01-31 14:06:00,45.4,27.8,30.16,NE,42,4.0,8.0,50,0.00,,,0.00,Wunderground v.1.15,2013-01-31 20:06:00,
2013-01-31 14:11:00,44.6,27.6,30.16,NNE,15,4.0,4.0,51,0.00,,,0.00,Wunderground v.1.15,2013-01-31 20:11:00,
2013-01-31 14:16:00,43.8,26.8,30.16,West,276,4.0,9.0,51,0.00,,,0.00,Wunderground v.1.15,2013-01-31 20:16:00,
2013-01-31 14:22:00,43.5,27.0,30.16,North,5,5.0,6.0,52,0.00,,,0.00,Wunderground v.1.15,2013-01-31 20:22:00,
2013-01-31 14:27:00,42.7,26.7,30.16,NW,311,5.0,10.0,53,0.00,,,0.00,Wunderground v.1.15,2013-01-31 20:27:00,
2013-01-31 14:32:00,42.0,27.0,30.16,NNW,335,5.0,7.0,55,0.00,,,0.00,Wunderground v.1.15,2013-01-31 20:32:00,
2013-01-31 14:38:00,41.8,27.2,30.16,NNE,14,3.0,7.0,56,0.00,,,0.00,Wunderground v.1.15,2013-01-31 20:38:00,
2013-01-31 14:44:00,41.5,27.0,30.17,North,5,2.0,4.0,56,0.00,,,0.00,Wunderground v.1.15,2013-01-31 20:44:00,
2013-01-31 14:49:00,40.7,27.1,30.17,West,281,3.0,4.0,58,0.00,,,0.00,Wunderground v.1.15,2013-01-31 20:49:00,
2013-01-31 14:54:00,40.8,26.7,30.17,North,355,3.0,6.0,57,0.00,,,0.00,Wunderground v.1.15,2013-01-31 20:54:00,
2013-01-31 15:00:00,40.6,26.5,30.17,NNE,16,3.0,5.0,57,0.00,,,0.00,Wunderground v.1.15,2013-01-31 21:00:00,
2013-01-31 15:05:00,40.9,26.8,30.18,NNW,342,3.0,7.0,57,0.00,,,0.00,Wunderground v.1.15,2013-01-31 21:05:00,
2013-01-31 15:10:00,39.7,26.5,30.19,WNW,298,4.0,4.0,59,0.00,,,0.00,Wunderground v.1.15,2013-01-31 21:10:00,
2013-01-31 15:15:00,38.8,26.1,30.19,NNE,20,5.0,7.0,60,0.00,,,0.00,Wunderground v.1.15,2013-01-31 21:15:00,
2013-01-31 15:21:00,37.9,25.2,30.20,NNW,330,5.0,5.0,60,0.00,,,0.00,Wunderground v.1.15,2013-01-31 21:21:00,
2013-01-31 15:26:00,37.5,25.7,30.21,North,5,5.0,8.0,62,0.00,,,0.00,Wunderground v.1.15,2013-01-31 21:26:00,
2013-01-31 15:32:00,37.0,25.6,30.21,NW,306,4.0,5.0,63,0.00,,,0.00,Wunderground v.1.15,2013-01-31 21:32:00,
2013-01-31 15:37:00,36.9,25.5,30.21,NNW,342,4.0,7.0,63,0.00,,,0.00,Wunderground v.1.15,2013-01-31 21:37:00,
2013-01-31 15:42:00,36.5,25.5,30.22,North,350,3.0,8.0,64,0.00,,,0.00,Wunderground v.1.15,2013-01-31 21:42:00,
2013-01-31 15:48:00,36.0,25.4,30.23,North,360,1.0,8.0,65,0.00,,,0.00,Wunderground v.1.15,2013-01-31 21:48:00,
2013-01-31 15:53:00,35.8,25.5,30.24,NNW,330,3.0,5.0,66,0.00,,,0.00,Wunderground v.1.15,2013-01-31 21:53:00,
2013-01-31 15:59:00,35.0,24.4,30.24,NW,319,4.0,9.0,65,0.00,,,0.00,Wunderground v.1.15,2013-01-31 21:59:00,
2013-01-31 16:04:00,34.2,24.4,30.25,NW,311,5.0,8.0,67,0.00,,,0.00,Wunderground v.1.15,2013-01-31 22:04:00,
2013-01-31 16:10:00,33.9,24.8,30.26,North,5,4.0,10.0,69,0.00,,,0.00,Wunderground v.1.15,2013-01-31 22:10:00,
2013-01-31 16:15:00,33.1,24.4,30.26,NNW,336,4.0,10.0,70,0.00,,,0.00,Wunderground v.1.15,2013-01-31 22:15:00,
2013-01-31 16:20:00,32.6,24.6,30.26,NE,43,4.0,4.0,72,0.00,,,0.00,Wunderground v.1.15,2013-01-31 22:20:00,
2013-01-31 16:26:00,31.7,24.0,30.26,NNW,344,3.0,6.0,73,0.00,,,0.00,Wunderground v.1.15,2013-01-31 22:26:00,
2013-01-31 16:31:00,31.2,23.9,30.26,NW,321,3.0,4.0,74,0.00,,,0.00,Wunderground v.1.15,2013-01-31 22:31:00,
2013-01-31 16:37:00,30.8,23.8,30.27,NW,313,4.0,7.0,75,0.00,,,0.00,Wunderground v.1.15,2013-01-31 22:37:00,
2013-01-31 16:42:00,30.6,23.9,30.28,NW,326,4.0,7.0,76,0.00,,,0.00,Wunderground v.1.15,2013-01-31 22:42:00,
2013-01-31 16:47:00,30.6,24.2,30.28,NNW,329,2.0,7.0,77,0.00,,,0.00,Wunderground v.1.15,2013-01-31 22:47:00,
2013-01-31 16:53:00,30.1,23.4,30.28,West,274,3.0,8.0,76,0.00,,,0.00,Wunderground v.1.15,2013-01-31 22:53:00,
2013-01-31 16:58:00,29.7,23.4,30.28,NW,323,5.0,8.0,77,0.00,,,0.00,Wunderground v.1.15,2013-01-31 22:58:00,
2013-01-31 17:04:00,29.6,23.6,30.29,NNW,348,4.0,5.0,78,0.00,,,0.00,Wunderground v.1.15,2013-01-31 23:04:00,
2013-01-31 17:09:00,29.0,23.0,30.28,NW,325,4.0,5.0,78,0.00,,,0.00,Wunderground v.1.15,2013-01-31 23:09:00,
2013-01-31 17:14:00,28.2,22.8,30.28,North,350,4.0,9.0,80,0.00,,,0.00,Wunderground v.1.15,2013-01-31 23:14:00,
2013-01-31 17:20:00,27.7,22.6,30.28,North,355,4.0,4.0,81,0.00,,,0.00,Wunderground v.1.15,2013-01-31 23:20:00,
2013-01-31 17:25:00,27.6,22.8,30.28,NW,307,3.0,4.0,82,0.00,,,0.00,Wunderground v.1.15,2013-01-31 23:25:00,
2013-01-31 17:31:00,27.4,22.6,30.29,NNW,336,3.0,7.0,82,0.00,,,0.00,Wunderground v.1.15,2013-01-31 23:31:00,
2013-01-31 17:36:00,27.2,22.4,30.29,North,360,3.0,7.0,82,0.00,,,0.00,Wunderground v.1.15,2013-01-31 23:36:00,
2013-01-31 17:42:00,26.8,22.3,30.29,NW,323,2.0,2.0,83,0.00,,,0.00,Wunderground v.1.15,2013-01-31 23:42:00,
2013-01-31 17:48:00,26.7,22.2,30.29,NW,306,1.0,4.0,83,0.00,,,0.00,Wunderground v.1.15,2013-01-31 23:48:00,
2013-01-31 17:53:00,26.8,22.3,30.30,NNE,23,3.0,3.0,83,0.00,,,0.00,Wunderground v.1.15,2013-01-31 23:53:00,
2013-01-31 17:58:00,26.6,21.8,30.31,NNW,329,2.0,8.0,82,0.00,,,0.00,Wunderground v.1.15,2013-01-31 23:58:00,
2013-01-31 18:04:00,26.5,21.5,30.31,NW,318,3.0,6.0,81,0.00,,,0.00,Wunderground v.1.15,2013-02-01 00:04:00,
2013-01-31 18:10:00,26.2,20.6,30.31,NNW,342,3.0,4.0,79,0.00,,,0.00,Wunderground v.1.15,2013-02-01 00:10:00,
2013-01-31 18:15:00,26.0,20.1,30.31,NW,320,3.0,8.0,78,0.00,,,0.00,Wunderground v.1.15,2013-02-01 00:15:00,
2013-01-31 18:20:00,26.0,19.8,30.32,North,355,3.0,4.0,77,0.00,,,0.00,Wunderground v.1.15,2013-02-01 00:20:00,
2013-01-31 18:25:00,25.9,19.4,30.32,NNW,331,2.0,4.0,76,0.00,,,0.00,Wunderground v.1.15,2013-02-01 00:25:00,
2013-01-31 18:31:00,25.9,19.7,30.32,NNW,343,2.0,3.0,77,0.00,,,0.00,Wunderground v.1.15,2013-02-01 00:31:00,
2013-01-31 18:36:00,25.6,18.8,30.33,WNW,292,2.0,5.0,75,0.00,,,0.00,Wunderground v.1.15,2013-02-01 00:36:00,
2013-01-31 18:41:00,25.3,18.2,30.34,NW,316,2.0,2.0,74,0.00,,,0.00,Wunderground v.1.15,2013-02-01 00:41:00,
2013-01-31 18:46:00,25.0,17.6,30.34,NNW,332,3.0,7.0,73,0.00,,,0.00,Wunderground v.1.15,2013-02-01 00:46:00,
2013-01-31 18:51:00,24.7,17.3,30.35,NNE,26,4.0,8.0,73,0.00,,,0.00,Wunderground v.1.15,2013-02-01 00:51:00,
2013-01-31 18:57:00,24.6,17.2,30.35,NNW,329,4.0,8.0,73,0.00,,,0.00,Wunderground v.1.15,2013-02-01 00:57:00,
2013-01-31 19:02:00,24.3,16.9,30.36,West,277,4.0,6.0,73,0.00,,,0.00,Wunderground v.1.15,2013-02-01 01:02:00,
2013-01-31 19:08:00,24.0,16.6,30.36,NW,322,3.0,6.0,73,0.00,,,0.00,Wunderground v.1.15,2013-02-01 01:08:00,
2013-01-31 19:13:00,23.8,16.4,30.36,NNW,345,3.0,6.0,73,0.00,,,0.00,Wunderground v.1.15,2013-02-01 01:13:00,
2013-01-31 19:19:00,23.7,16.3,30.36,NNE,12,4.0,6.0,73,0.00,,,0.00,Wunderground v.1.15,2013-02-01 01:19:00,
2013-01-31 19:24:00,23.5,15.8,30.36,NNW,329,3.0,4.0,72,0.00,,,0.00,Wunderground v.1.15,2013-02-01 01:24:00,
2013-01-31 19:29:00,23.3,15.9,30.37,North,350,2.0,4.0,73,0.00,,,0.00,Wunderground v.1.15,2013-02-01 01:29:00,
2013-01-31 19:35:00,23.1,15.4,30.37,WNW,296,3.0,5.0,72,0.00,,,0.00,Wunderground v.1.15,2013-02-01 01:35:00,
2013-01-31 19:40:00,23.0,15.3,30.37,NW,323,4.0,10.0,72,0.00,,,0.00,Wunderground v.1.15,2013-02-01 01:40:00,
2013-01-31 19:45:00,22.9,15.2,30.38,North,355,3.0,10.0,72,0.00,,,0.00,Wunderground v.1.15,2013-02-01 01:45:00,
2013-01-31 19:51:00,22.7,15.0,30.37,NNW,327,3.0,3.0,72,0.00,,,0.00,Wunderground v.1.15,2013-02-01 01:51:00,
2013-01-31 19:56:00,22.6,14.9,30.38,NNW,336,3.0,4.0,72,0.00,,,0.00,Wunderground v.1.15,2013-02-01 01:56:00,
2013-01-31 20:02:00,22.4,14.7,30.39,NW,321,2.0,9.0,72,0.00,,,0.00,Wunderground v.1.15,2013-02-01 02:02:00,
2013-01-31 20:07:00,22.3,14.6,30.39,NW,317,3.0,9.0,72,0.00,,,0.00,Wunderground v.1.15,2013-02-01 02:07:00,
2013-01-31 20:13:00,22.1,14.4,30.39,North,360,3.0,4.0,72,0.00,,,0.00,Wunderground v.1.15,2013-02-01 02:13:00,
2013-01-31 20:19:00,22.0,14.3,30.40,North,5,3.0,4.0,72,0.00,,,0.00,Wunderground v.1.15,2013-02-01 02:19:00,
2013-01-31 20:24:00,21.9,14.3,30.40,North,360,2.0,3.0,72,0.00,,,0.00,Wunderground v.1.15,2013-02-01 02:24:00,
2013-01-31 20:30:00,21.6,13.6,30.41,NNW,338,2.0,2.0,71,0.00,,,0.00,Wunderground v.1.15,2013-02-01 02:30:00,
2013-01-31 20:35:00,21.5,13.5,30.40,NW,326,2.0,2.0,71,0.00,,,0.00,Wunderground v.1.15,2013-02-01 02:35:00,
2013-01-31 20:41:00,21.4,13.8,30.40,NW,325,2.0,5.0,72,0.00,,,0.00,Wunderground v.1.15,2013-02-01 02:41:00,
2013-01-31 20:46:00,21.3,13.4,30.40,NNW,331,3.0,5.0,71,0.00,,,0.00,Wunderground v.1.15,2013-02-01 02:46:00,
2013-01-31 20:51:00,21.2,13.3,30.41,WNW,294,3.0,4.0,71,0.00,,,0.00,Wunderground v.1.15,2013-02-01 02:51:00,
2013-01-31 20:57:00,21.2,13.3,30.41,North,5,2.0,4.0,71,0.00,,,0.00,Wunderground v.1.15,2013-02-01 02:57:00,
2013-01-31 21:02:00,21.1,12.8,30.41,North,350,2.0,2.0,70,0.00,,,0.00,Wunderground v.1.15,2013-02-01 03:02:00,
2013-01-31 21:08:00,20.9,12.6,30.41,North,9,2.0,2.0,70,0.00,,,0.00,Wunderground v.1.15,2013-02-01 03:08:00,
2013-01-31 21:13:00,20.8,12.9,30.41,NNW,342,1.0,2.0,71,0.00,,,0.00,Wunderground v.1.15,2013-02-01 03:13:00,
2013-01-31 21:18:00,20.7,12.8,30.42,NNW,348,2.0,4.0,71,0.00,,,0.00,Wunderground v.1.15,2013-02-01 03:18:00,
2013-01-31 21:23:00,20.6,12.7,30.42,NNW,348,2.0,2.0,71,0.00,,,0.00,Wunderground v.1.15,2013-02-01 03:23:00,
2013-01-31 21:28:00,20.4,12.5,30.42,NNW,327,1.0,3.0,71,0.00,,,0.00,Wunderground v.1.15,2013-02-01 03:28:00,
2013-01-31 21:34:00,20.3,12.4,30.43,NNW,338,1.0,2.0,71,0.00,,,0.00,Wunderground v.1.15,2013-02-01 03:34:00,
2013-01-31 21:39:00,20.2,12.0,30.43,NNW,328,2.0,4.0,70,0.00,,,0.00,Wunderground v.1.15,2013-02-01 03:39:00,
2013-01-31 21:44:00,20.2,11.7,30.43,NW,306,2.0,5.0,69,0.00,,,0.00,Wunderground v.1.15,2013-02-01 03:44:00,
2013-01-31 21:50:00,20.1,11.6,30.43,NNW,344,2.0,3.0,69,0.00,,,0.00,Wunderground v.1.15,2013-02-01 03:50:00,
2013-01-31 21:55:00,20.0,11.5,30.43,NNE,13,2.0,6.0,69,0.00,,,0.00,Wunderground v.1.15,2013-02-01 03:55:00,
2013-01-31 22:00:00,19.9,10.7,30.43,NNW,331,3.0,5.0,67,0.00,,,0.00,Wunderground v.1.15,2013-02-01 04:00:00,
2013-01-31 22:06:00,19.7,10.5,30.44,North,5,2.0,5.0,67,0.00,,,0.00,Wunderground v.1.15,2013-02-01 04:06:00,
2013-01-31 22:12:00,19.6,10.4,30.44,NNW,346,2.0,4.0,67,0.00,,,0.00,Wunderground v.1.15,2013-02-01 04:12:00,
2013-01-31 22:17:00,19.5,10.3,30.44,North,350,2.0,4.0,67,0.00,,,0.00,Wunderground v.1.15,2013-02-01 04:17:00,
2013-01-31 22:23:00,19.3,10.1,30.44,NNE,19,2.0,3.0,67,0.00,,,0.00,Wunderground v.1.15,2013-02-01 04:23:00,
2013-01-31 22:29:00,19.3,10.1,30.44,North,355,2.0,4.0,67,0.00,,,0.00,Wunderground v.1.15,2013-02-01 04:29:00,
2013-01-31 22:34:00,19.1,9.6,30.44,NNW,338,2.0,4.0,66,0.00,,,0.00,Wunderground v.1.15,2013-02-01 04:34:00,
2013-01-31 22:39:00,18.9,9.7,30.45,NW,316,2.0,4.0,67,0.00,,,0.00,Wunderground v.1.15,2013-02-01 04:39:00,
2013-01-31 22:45:00,18.8,9.6,30.45,NNW,334,2.0,2.0,67,0.00,,,0.00,Wunderground v.1.15,2013-02-01 04:45:00,
2013-01-31 22:50:00,18.7,9.9,30.44,North,360,2.0,3.0,68,0.00,,,0.00,Wunderground v.1.15,2013-02-01 04:50:00,
2013-01-31 22:55:00,18.6,10.1,30.44,NNW,342,1.0,3.0,69,0.00,,,0.00,Wunderground v.1.15,2013-02-01 04:55:00,
2013-01-31 23:00:00,18.4,9.6,30.44,NNW,338,2.0,2.0,68,0.00,,,0.00,Wunderground v.1.15,2013-02-01 05:00:00,
2013-01-31 23:03:00,18.4,9.6,30.44,North,360,2.0,5.0,68,0.00,,,0.00,Wunderground v.1.15,2013-02-01 05:03:00,
2013-01-31 23:04:00,18.3,9.5,30.44,NNE,17,2.0,5.0,68,0.00,,,0.00,Wunderground v.1.15,2013-02-01 05:04:00,
2013-01-31 23:09:00,18.2,9.4,30.44,NNE,31,2.0,5.0,68,0.00,,,0.00,Wunderground v.1.15,2013-02-01 05:09:00,
2013-01-31 23:15:00,18.0,9.5,30.45,NW,321,1.0,3.0,69,0.00,,,0.00,Wunderground v.1.15,2013-02-01 05:15:00,
2013-01-31 23:20:00,17.9,9.4,30.44,North,5,1.0,1.0,69,0.00,,,0.00,Wunderground v.1.15,2013-02-01 05:20:00,
2013-01-31 23:26:00,17.7,9.6,30.44,North,355,1.0,2.0,70,0.00,,,0.00,Wunderground v.1.15,2013-02-01 05:26:00,
2013-01-31 23:31:00,17.6,9.8,30.44,North,355,1.0,1.0,71,0.00,,,0.00,Wunderground v.1.15,2013-02-01 05:31:00,
2013-01-31 23:36:00,17.3,9.2,30.45,North,360,1.0,2.0,70,0.00,,,0.00,Wunderground v.1.15,2013-02-01 05:36:00,
2013-01-31 23:42:00,17.3,9.5,30.44,NNW,342,1.0,2.0,71,0.00,,,0.00,Wunderground v.1.15,2013-02-01 05:42:00,
2013-01-31 23:47:00,17.3,9.5,30.44,North,9,2.0,3.0,71,0.00,,,0.00,Wunderground v.1.15,2013-02-01 05:47:00,
2013-01-31 23:53:00,17.2,9.4,30.45,NNW,347,2.0,2.0,71,0.00,,,0.00,Wunderground v.1.15,2013-02-01 05:53:00,
2013-01-31 23:58:00,17.2,9.7,30.45,North,349,1.0,2.0,72,0.00,,,0.00,Wunderground v.1.15,2013-02-01 05:58:00,